sensor_id;sensor_type;location;lat;lon;timestamp;temperature;humidity
47845;DHT22;33605;48.822;8.796;2023-02-28T00:00:24;2.80;26.20
47845;DHT22;33605;48.822;8.796;2023-02-28T00:02:50;2.80;26.40
47845;DHT22;33605;48.822;8.796;2023-02-28T00:05:18;2.80;26.40
47845;DHT22;33605;48.822;8.796;2023-02-28T00:07:44;2.70;26.40
47845;DHT22;33605;48.822;8.796;2023-02-28T00:10:12;2.70;26.40
47845;DHT22;33605;48.822;8.796;2023-02-28T00:12:38;2.70;26.50
47845;DHT22;33605;48.822;8.796;2023-02-28T00:15:09;2.60;26.50
47845;DHT22;33605;48.822;8.796;2023-02-28T00:17:36;2.60;26.50
47845;DHT22;33605;48.822;8.796;2023-02-28T00:20:03;2.60;26.50
47845;DHT22;33605;48.822;8.796;2023-02-28T00:22:30;2.60;26.60
47845;DHT22;33605;48.822;8.796;2023-02-28T00:24:56;2.60;26.60
47845;DHT22;33605;48.822;8.796;2023-02-28T00:27:21;2.60;26.60
47845;DHT22;33605;48.822;8.796;2023-02-28T00:29:47;2.60;26.70
47845;DHT22;33605;48.822;8.796;2023-02-28T00:32:13;2.60;26.80
47845;DHT22;33605;48.822;8.796;2023-02-28T00:34:39;2.60;26.80
47845;DHT22;33605;48.822;8.796;2023-02-28T00:37:06;2.50;26.90
47845;DHT22;33605;48.822;8.796;2023-02-28T00:39:36;2.50;27.00
47845;DHT22;33605;48.822;8.796;2023-02-28T00:42:03;2.50;27.10
47845;DHT22;33605;48.822;8.796;2023-02-28T00:44:30;2.50;27.20
47845;DHT22;33605;48.822;8.796;2023-02-28T00:46:56;2.50;27.30
47845;DHT22;33605;48.822;8.796;2023-02-28T00:49:22;2.40;27.30
47845;DHT22;33605;48.822;8.796;2023-02-28T00:51:49;2.40;27.40
47845;DHT22;33605;48.822;8.796;2023-02-28T00:54:15;2.40;27.50
47845;DHT22;33605;48.822;8.796;2023-02-28T00:56:41;2.40;27.70
47845;DHT22;33605;48.822;8.796;2023-02-28T00:59:07;2.40;27.70
47845;DHT22;33605;48.822;8.796;2023-02-28T01:01:33;2.30;27.70
47845;DHT22;33605;48.822;8.796;2023-02-28T01:03:59;2.30;27.70
47845;DHT22;33605;48.822;8.796;2023-02-28T01:06:24;2.30;27.80
47845;DHT22;33605;48.822;8.796;2023-02-28T01:08:50;2.30;27.90
47845;DHT22;33605;48.822;8.796;2023-02-28T01:11:17;2.30;28.00
47845;DHT22;33605;48.822;8.796;2023-02-28T01:13:44;2.30;28.10
47845;DHT22;33605;48.822;8.796;2023-02-28T01:16:10;2.20;28.00
47845;DHT22;33605;48.822;8.796;2023-02-28T01:18:36;2.20;28.10
47845;DHT22;33605;48.822;8.796;2023-02-28T01:21:12;2.20;28.20
47845;DHT22;33605;48.822;8.796;2023-02-28T01:23:38;2.20;28.30
47845;DHT22;33605;48.822;8.796;2023-02-28T01:26:13;2.20;28.40
47845;DHT22;33605;48.822;8.796;2023-02-28T01:28:39;2.20;28.50
47845;DHT22;33605;48.822;8.796;2023-02-28T01:31:05;2.20;29.00
47845;DHT22;33605;48.822;8.796;2023-02-28T01:33:32;2.20;28.70
47845;DHT22;33605;48.822;8.796;2023-02-28T01:35:59;2.20;28.80
47845;DHT22;33605;48.822;8.796;2023-02-28T01:38:25;2.10;28.80
47845;DHT22;33605;48.822;8.796;2023-02-28T01:40:51;2.10;28.90
47845;DHT22;33605;48.822;8.796;2023-02-28T01:43:28;2.10;29.00
47845;DHT22;33605;48.822;8.796;2023-02-28T01:45:55;2.10;29.10
47845;DHT22;33605;48.822;8.796;2023-02-28T01:48:27;2.10;29.30
47845;DHT22;33605;48.822;8.796;2023-02-28T01:50:55;2.10;29.30
47845;DHT22;33605;48.822;8.796;2023-02-28T01:53:30;2.00;29.30
47845;DHT22;33605;48.822;8.796;2023-02-28T01:55:57;2.00;29.30
47845;DHT22;33605;48.822;8.796;2023-02-28T01:58:23;2.00;29.40
47845;DHT22;33605;48.822;8.796;2023-02-28T02:00:49;2.00;29.40
47845;DHT22;33605;48.822;8.796;2023-02-28T02:03:16;2.00;29.50
47845;DHT22;33605;48.822;8.796;2023-02-28T02:05:47;2.00;29.60
47845;DHT22;33605;48.822;8.796;2023-02-28T02:08:19;2.00;29.70
47845;DHT22;33605;48.822;8.796;2023-02-28T02:10:54;2.00;30.20
47845;DHT22;33605;48.822;8.796;2023-02-28T02:18:47;2.00;29.80
47845;DHT22;33605;48.822;8.796;2023-02-28T02:21:40;1.90;29.90
47845;DHT22;33605;48.822;8.796;2023-02-28T02:27:12;1.90;30.00
47845;DHT22;33605;48.822;8.796;2023-02-28T02:30:23;1.90;30.00
47845;DHT22;33605;48.822;8.796;2023-02-28T02:36:26;1.90;30.30
47845;DHT22;33605;48.822;8.796;2023-02-28T02:43:50;1.80;30.60
47845;DHT22;33605;48.822;8.796;2023-02-28T02:46:34;1.80;30.80
47845;DHT22;33605;48.822;8.796;2023-02-28T02:49:06;1.80;30.90
47845;DHT22;33605;48.822;8.796;2023-02-28T02:51:33;1.80;31.10
47845;DHT22;33605;48.822;8.796;2023-02-28T02:54:11;1.80;31.20
47845;DHT22;33605;48.822;8.796;2023-02-28T02:56:42;1.70;31.90
47845;DHT22;33605;48.822;8.796;2023-02-28T02:59:12;1.80;31.60
47845;DHT22;33605;48.822;8.796;2023-02-28T03:01:40;1.70;31.60
47845;DHT22;33605;48.822;8.796;2023-02-28T03:04:11;1.70;31.70
47845;DHT22;33605;48.822;8.796;2023-02-28T03:06:38;1.70;31.80
47845;DHT22;33605;48.822;8.796;2023-02-28T03:09:04;1.70;31.80
47845;DHT22;33605;48.822;8.796;2023-02-28T03:11:30;1.70;31.80
47845;DHT22;33605;48.822;8.796;2023-02-28T03:14:25;1.70;32.50
47845;DHT22;33605;48.822;8.796;2023-02-28T03:17:16;1.70;32.40
47845;DHT22;33605;48.822;8.796;2023-02-28T03:25:21;1.60;32.80
47845;DHT22;33605;48.822;8.796;2023-02-28T03:27:55;1.60;32.90
47845;DHT22;33605;48.822;8.796;2023-02-28T03:30:27;1.60;33.10
47845;DHT22;33605;48.822;8.796;2023-02-28T03:33:10;1.60;33.20
47845;DHT22;33605;48.822;8.796;2023-02-28T03:35:41;1.60;33.30
47845;DHT22;33605;48.822;8.796;2023-02-28T03:39:14;1.60;33.30
47845;DHT22;33605;48.822;8.796;2023-02-28T03:41:21;1.60;33.60
47845;DHT22;33605;48.822;8.796;2023-02-28T03:43:58;1.60;33.70
47845;DHT22;33605;48.822;8.796;2023-02-28T03:46:27;1.60;33.80
47845;DHT22;33605;48.822;8.796;2023-02-28T03:49:03;1.60;33.80
47845;DHT22;33605;48.822;8.796;2023-02-28T03:51:32;1.70;34.00
47845;DHT22;33605;48.822;8.796;2023-02-28T03:54:05;1.70;34.00
47845;DHT22;33605;48.822;8.796;2023-02-28T03:56:36;1.70;34.30
47845;DHT22;33605;48.822;8.796;2023-02-28T03:59:14;1.70;34.50
47845;DHT22;33605;48.822;8.796;2023-02-28T04:01:44;1.70;34.50
47845;DHT22;33605;48.822;8.796;2023-02-28T04:04:11;1.70;34.50
47845;DHT22;33605;48.822;8.796;2023-02-28T04:06:38;1.80;34.50
47845;DHT22;33605;48.822;8.796;2023-02-28T04:09:06;1.80;34.40
47845;DHT22;33605;48.822;8.796;2023-02-28T04:11:43;1.80;34.50
47845;DHT22;33605;48.822;8.796;2023-02-28T04:14:09;1.90;34.80
47845;DHT22;33605;48.822;8.796;2023-02-28T04:16:38;1.90;34.70
47845;DHT22;33605;48.822;8.796;2023-02-28T04:19:05;1.90;34.80
47845;DHT22;33605;48.822;8.796;2023-02-28T04:21:36;1.90;34.90
47845;DHT22;33605;48.822;8.796;2023-02-28T04:24:03;1.90;35.00
47845;DHT22;33605;48.822;8.796;2023-02-28T04:26:30;1.90;34.90
47845;DHT22;33605;48.822;8.796;2023-02-28T04:28:57;2.00;34.90
47845;DHT22;33605;48.822;8.796;2023-02-28T04:31:22;2.00;34.90
47845;DHT22;33605;48.822;8.796;2023-02-28T04:33:48;2.00;34.90
47845;DHT22;33605;48.822;8.796;2023-02-28T04:36:14;2.00;35.00
47845;DHT22;33605;48.822;8.796;2023-02-28T04:38:40;2.00;35.30
47845;DHT22;33605;48.822;8.796;2023-02-28T04:41:06;2.00;35.20
47845;DHT22;33605;48.822;8.796;2023-02-28T04:43:32;2.00;35.30
47845;DHT22;33605;48.822;8.796;2023-02-28T04:46:01;2.00;35.30
47845;DHT22;33605;48.822;8.796;2023-02-28T04:48:28;2.10;35.40
47845;DHT22;33605;48.822;8.796;2023-02-28T04:50:54;2.10;35.40
47845;DHT22;33605;48.822;8.796;2023-02-28T04:53:21;2.10;35.50
47845;DHT22;33605;48.822;8.796;2023-02-28T04:55:47;2.10;35.60
47845;DHT22;33605;48.822;8.796;2023-02-28T04:58:13;2.10;35.80
47845;DHT22;33605;48.822;8.796;2023-02-28T05:00:39;2.10;35.90
47845;DHT22;33605;48.822;8.796;2023-02-28T05:03:05;2.10;35.80
47845;DHT22;33605;48.822;8.796;2023-02-28T05:05:30;2.20;36.10
47845;DHT22;33605;48.822;8.796;2023-02-28T05:07:56;2.20;36.10
47845;DHT22;33605;48.822;8.796;2023-02-28T05:10:25;2.20;36.20
47845;DHT22;33605;48.822;8.796;2023-02-28T05:12:50;2.20;36.30
47845;DHT22;33605;48.822;8.796;2023-02-28T05:15:16;2.20;36.30
47845;DHT22;33605;48.822;8.796;2023-02-28T05:17:42;2.30;36.40
47845;DHT22;33605;48.822;8.796;2023-02-28T05:20:08;2.30;36.50
47845;DHT22;33605;48.822;8.796;2023-02-28T05:22:39;2.30;36.50
47845;DHT22;33605;48.822;8.796;2023-02-28T05:25:05;2.30;36.50
47845;DHT22;33605;48.822;8.796;2023-02-28T05:27:31;2.30;36.40
47845;DHT22;33605;48.822;8.796;2023-02-28T05:29:57;2.40;36.40
47845;DHT22;33605;48.822;8.796;2023-02-28T05:32:24;2.40;36.40
47845;DHT22;33605;48.822;8.796;2023-02-28T05:34:50;2.40;36.40
47845;DHT22;33605;48.822;8.796;2023-02-28T05:37:16;2.40;36.40
47845;DHT22;33605;48.822;8.796;2023-02-28T05:39:42;2.50;36.60
47845;DHT22;33605;48.822;8.796;2023-02-28T05:42:08;2.40;36.50
47845;DHT22;33605;48.822;8.796;2023-02-28T05:44:35;2.50;36.70
47845;DHT22;33605;48.822;8.796;2023-02-28T05:47:00;2.50;36.70
47845;DHT22;33605;48.822;8.796;2023-02-28T05:49:26;2.50;36.70
47845;DHT22;33605;48.822;8.796;2023-02-28T05:51:51;2.50;36.80
47845;DHT22;33605;48.822;8.796;2023-02-28T05:54:17;2.50;36.80
47845;DHT22;33605;48.822;8.796;2023-02-28T05:56:43;2.50;36.80
47845;DHT22;33605;48.822;8.796;2023-02-28T05:59:13;2.50;36.80
47845;DHT22;33605;48.822;8.796;2023-02-28T06:01:43;2.60;36.90
47845;DHT22;33605;48.822;8.796;2023-02-28T06:04:14;2.50;36.70
47845;DHT22;33605;48.822;8.796;2023-02-28T06:06:43;2.60;36.70
47845;DHT22;33605;48.822;8.796;2023-02-28T06:09:10;2.60;36.60
47845;DHT22;33605;48.822;8.796;2023-02-28T06:11:36;2.70;36.60
47845;DHT22;33605;48.822;8.796;2023-02-28T06:14:02;2.60;36.60
47845;DHT22;33605;48.822;8.796;2023-02-28T06:16:29;2.60;36.50
47845;DHT22;33605;48.822;8.796;2023-02-28T06:18:57;2.60;36.40
47845;DHT22;33605;48.822;8.796;2023-02-28T06:21:23;2.60;36.50
47845;DHT22;33605;48.822;8.796;2023-02-28T06:23:49;2.60;36.40
47845;DHT22;33605;48.822;8.796;2023-02-28T06:26:15;2.60;36.40
47845;DHT22;33605;48.822;8.796;2023-02-28T06:28:41;2.70;36.40
47845;DHT22;33605;48.822;8.796;2023-02-28T06:31:11;2.60;36.30
47845;DHT22;33605;48.822;8.796;2023-02-28T06:33:38;2.60;36.40
47845;DHT22;33605;48.822;8.796;2023-02-28T06:36:04;2.70;36.40
47845;DHT22;33605;48.822;8.796;2023-02-28T06:38:30;2.70;36.30
47845;DHT22;33605;48.822;8.796;2023-02-28T06:40:57;2.70;36.20
47845;DHT22;33605;48.822;8.796;2023-02-28T06:43:23;2.70;36.20
47845;DHT22;33605;48.822;8.796;2023-02-28T06:45:49;2.80;36.20
47845;DHT22;33605;48.822;8.796;2023-02-28T06:48:14;2.80;36.20
47845;DHT22;33605;48.822;8.796;2023-02-28T06:50:40;2.80;36.10
47845;DHT22;33605;48.822;8.796;2023-02-28T06:53:06;2.80;36.00
47845;DHT22;33605;48.822;8.796;2023-02-28T06:55:31;2.80;36.00
47845;DHT22;33605;48.822;8.796;2023-02-28T06:57:58;2.80;35.90
47845;DHT22;33605;48.822;8.796;2023-02-28T07:00:23;2.80;36.00
47845;DHT22;33605;48.822;8.796;2023-02-28T07:02:50;2.80;35.90
47845;DHT22;33605;48.822;8.796;2023-02-28T07:05:16;2.90;36.00
47845;DHT22;33605;48.822;8.796;2023-02-28T07:07:41;2.80;35.90
47845;DHT22;33605;48.822;8.796;2023-02-28T07:10:13;2.80;35.90
47845;DHT22;33605;48.822;8.796;2023-02-28T07:12:42;2.80;35.90
47845;DHT22;33605;48.822;8.796;2023-02-28T07:15:09;2.80;35.90
47845;DHT22;33605;48.822;8.796;2023-02-28T07:17:34;2.80;35.90
47845;DHT22;33605;48.822;8.796;2023-02-28T07:20:00;2.90;36.10
47845;DHT22;33605;48.822;8.796;2023-02-28T07:22:26;2.90;36.10
47845;DHT22;33605;48.822;8.796;2023-02-28T07:24:51;2.90;36.10
47845;DHT22;33605;48.822;8.796;2023-02-28T07:27:17;2.90;36.10
47845;DHT22;33605;48.822;8.796;2023-02-28T07:29:49;2.90;36.20
47845;DHT22;33605;48.822;8.796;2023-02-28T07:32:15;2.90;36.10
47845;DHT22;33605;48.822;8.796;2023-02-28T07:34:41;2.90;36.00
47845;DHT22;33605;48.822;8.796;2023-02-28T07:37:07;2.90;36.00
47845;DHT22;33605;48.822;8.796;2023-02-28T07:39:32;2.90;36.50
47845;DHT22;33605;48.822;8.796;2023-02-28T07:41:58;3.00;37.10
47845;DHT22;33605;48.822;8.796;2023-02-28T07:44:25;3.00;37.20
47845;DHT22;33605;48.822;8.796;2023-02-28T07:46:51;3.10;37.30
47845;DHT22;33605;48.822;8.796;2023-02-28T07:49:18;3.20;37.90
47845;DHT22;33605;48.822;8.796;2023-02-28T07:51:43;3.20;37.20
47845;DHT22;33605;48.822;8.796;2023-02-28T07:54:09;3.40;37.40
47845;DHT22;33605;48.822;8.796;2023-02-28T07:56:35;3.50;37.10
47845;DHT22;33605;48.822;8.796;2023-02-28T07:59:00;3.60;36.70
47845;DHT22;33605;48.822;8.796;2023-02-28T08:01:27;3.70;36.20
47845;DHT22;33605;48.822;8.796;2023-02-28T08:03:52;3.80;36.00
47845;DHT22;33605;48.822;8.796;2023-02-28T08:06:22;3.90;35.80
47845;DHT22;33605;48.822;8.796;2023-02-28T08:08:48;3.90;35.40
47845;DHT22;33605;48.822;8.796;2023-02-28T08:11:15;4.00;35.20
47845;DHT22;33605;48.822;8.796;2023-02-28T08:13:41;4.00;34.90
47845;DHT22;33605;48.822;8.796;2023-02-28T08:16:09;4.00;34.70
47845;DHT22;33605;48.822;8.796;2023-02-28T08:18:35;4.00;34.40
47845;DHT22;33605;48.822;8.796;2023-02-28T08:21:09;4.00;34.30
47845;DHT22;33605;48.822;8.796;2023-02-28T08:23:35;4.10;34.30
47845;DHT22;33605;48.822;8.796;2023-02-28T08:26:02;4.10;34.20
47845;DHT22;33605;48.822;8.796;2023-02-28T08:28:27;4.00;34.00
47845;DHT22;33605;48.822;8.796;2023-02-28T08:30:53;4.00;33.90
47845;DHT22;33605;48.822;8.796;2023-02-28T08:33:23;4.00;33.80
47845;DHT22;33605;48.822;8.796;2023-02-28T08:35:51;4.00;34.40
47845;DHT22;33605;48.822;8.796;2023-02-28T08:38:17;4.00;33.80
47845;DHT22;33605;48.822;8.796;2023-02-28T08:40:42;4.00;33.70
47845;DHT22;33605;48.822;8.796;2023-02-28T08:43:08;3.90;33.70
47845;DHT22;33605;48.822;8.796;2023-02-28T08:45:33;3.90;33.70
47845;DHT22;33605;48.822;8.796;2023-02-28T08:47:59;3.90;33.70
47845;DHT22;33605;48.822;8.796;2023-02-28T08:50:25;3.90;33.70
47845;DHT22;33605;48.822;8.796;2023-02-28T08:52:50;3.90;33.70
47845;DHT22;33605;48.822;8.796;2023-02-28T08:55:16;3.80;33.60
47845;DHT22;33605;48.822;8.796;2023-02-28T08:57:41;3.80;33.60
47845;DHT22;33605;48.822;8.796;2023-02-28T09:00:08;3.80;33.70
47845;DHT22;33605;48.822;8.796;2023-02-28T09:02:34;3.80;33.80
47845;DHT22;33605;48.822;8.796;2023-02-28T09:04:59;3.80;33.80
47845;DHT22;33605;48.822;8.796;2023-02-28T09:07:25;3.80;33.80
47845;DHT22;33605;48.822;8.796;2023-02-28T09:09:51;3.80;33.80
47845;DHT22;33605;48.822;8.796;2023-02-28T09:12:23;3.80;33.90
47845;DHT22;33605;48.822;8.796;2023-02-28T09:14:48;3.80;33.90
47845;DHT22;33605;48.822;8.796;2023-02-28T09:17:14;3.80;33.90
47845;DHT22;33605;48.822;8.796;2023-02-28T09:19:40;3.80;33.80
47845;DHT22;33605;48.822;8.796;2023-02-28T09:22:06;3.80;33.70
47845;DHT22;33605;48.822;8.796;2023-02-28T09:24:32;3.80;33.70
47845;DHT22;33605;48.822;8.796;2023-02-28T09:26:58;3.80;33.80
47845;DHT22;33605;48.822;8.796;2023-02-28T09:29:23;3.80;33.80
47845;DHT22;33605;48.822;8.796;2023-02-28T09:31:49;3.80;33.80
47845;DHT22;33605;48.822;8.796;2023-02-28T09:34:15;3.90;33.90
47845;DHT22;33605;48.822;8.796;2023-02-28T09:36:43;3.90;34.50
47845;DHT22;33605;48.822;8.796;2023-02-28T09:39:09;3.90;33.80
47845;DHT22;33605;48.822;8.796;2023-02-28T09:41:54;3.90;33.70
47845;DHT22;33605;48.822;8.796;2023-02-28T09:44:46;3.90;33.60
47845;DHT22;33605;48.822;8.796;2023-02-28T09:49:47;4.00;33.70
47845;DHT22;33605;48.822;8.796;2023-02-28T09:52:18;4.00;33.70
47845;DHT22;33605;48.822;8.796;2023-02-28T09:54:45;4.00;33.70
47845;DHT22;33605;48.822;8.796;2023-02-28T09:57:39;4.00;33.70
47845;DHT22;33605;48.822;8.796;2023-02-28T10:00:19;4.00;33.70
47845;DHT22;33605;48.822;8.796;2023-02-28T10:05:24;4.10;33.70
47845;DHT22;33605;48.822;8.796;2023-02-28T10:08:17;4.10;33.70
47845;DHT22;33605;48.822;8.796;2023-02-28T10:10:48;4.10;33.60
47845;DHT22;33605;48.822;8.796;2023-02-28T10:13:28;4.10;33.40
47845;DHT22;33605;48.822;8.796;2023-02-28T10:16:02;4.20;33.40
47845;DHT22;33605;48.822;8.796;2023-02-28T10:18:52;4.20;33.40
47845;DHT22;33605;48.822;8.796;2023-02-28T10:22:08;4.30;33.50
47845;DHT22;33605;48.822;8.796;2023-02-28T10:27:01;4.40;33.30
47845;DHT22;33605;48.822;8.796;2023-02-28T10:29:32;4.40;33.10
47845;DHT22;33605;48.822;8.796;2023-02-28T10:32:01;4.40;33.00
47845;DHT22;33605;48.822;8.796;2023-02-28T10:34:28;4.40;32.80
47845;DHT22;33605;48.822;8.796;2023-02-28T10:36:54;4.40;32.60
47845;DHT22;33605;48.822;8.796;2023-02-28T10:39:40;4.50;32.60
47845;DHT22;33605;48.822;8.796;2023-02-28T10:42:26;4.50;32.70
47845;DHT22;33605;48.822;8.796;2023-02-28T10:45:13;4.50;32.60
47845;DHT22;33605;48.822;8.796;2023-02-28T10:47:56;4.50;32.30
47845;DHT22;33605;48.822;8.796;2023-02-28T10:53:28;4.60;32.10
47845;DHT22;33605;48.822;8.796;2023-02-28T11:01:17;4.70;31.80
47845;DHT22;33605;48.822;8.796;2023-02-28T11:03:44;4.70;31.60
47845;DHT22;33605;48.822;8.796;2023-02-28T11:06:18;4.80;31.80
47845;DHT22;33605;48.822;8.796;2023-02-28T11:08:53;4.80;31.80
47845;DHT22;33605;48.822;8.796;2023-02-28T11:11:20;4.90;31.70
47845;DHT22;33605;48.822;8.796;2023-02-28T11:13:47;4.90;31.40
47845;DHT22;33605;48.822;8.796;2023-02-28T11:16:15;5.00;31.30
47845;DHT22;33605;48.822;8.796;2023-02-28T11:21:15;5.10;31.20
47845;DHT22;33605;48.822;8.796;2023-02-28T11:23:43;5.10;31.40
47845;DHT22;33605;48.822;8.796;2023-02-28T11:26:09;5.30;31.60
47845;DHT22;33605;48.822;8.796;2023-02-28T11:28:42;5.30;31.30
47845;DHT22;33605;48.822;8.796;2023-02-28T11:33:44;5.50;31.10
47845;DHT22;33605;48.822;8.796;2023-02-28T11:36:24;5.60;31.00
47845;DHT22;33605;48.822;8.796;2023-02-28T11:38:55;5.70;31.00
47845;DHT22;33605;48.822;8.796;2023-02-28T16:29:13;16.50;25.20
47845;DHT22;33605;48.822;8.796;2023-02-28T16:31:40;19.10;19.10
47845;DHT22;33605;48.822;8.796;2023-02-28T16:34:06;18.70;19.10
47845;DHT22;33605;48.822;8.796;2023-02-28T16:36:32;18.30;19.10
47845;DHT22;33605;48.822;8.796;2023-02-28T16:38:57;17.90;19.10
47845;DHT22;33605;48.822;8.796;2023-02-28T16:41:27;17.50;19.10
47845;DHT22;33605;48.822;8.796;2023-02-28T16:43:55;17.00;19.10
47845;DHT22;33605;48.822;8.796;2023-02-28T16:46:31;16.50;19.20
47845;DHT22;33605;48.822;8.796;2023-02-28T16:48:58;16.00;19.30
47845;DHT22;33605;48.822;8.796;2023-02-28T16:51:24;15.60;19.50
47845;DHT22;33605;48.822;8.796;2023-02-28T16:53:49;15.20;19.60
47845;DHT22;33605;48.822;8.796;2023-02-28T16:56:20;14.80;19.60
47845;DHT22;33605;48.822;8.796;2023-02-28T16:58:47;14.50;19.90
47845;DHT22;33605;48.822;8.796;2023-02-28T17:01:13;14.10;19.90
47845;DHT22;33605;48.822;8.796;2023-02-28T17:03:39;13.80;20.10
47845;DHT22;33605;48.822;8.796;2023-02-28T17:06:09;13.60;20.40
47845;DHT22;33605;48.822;8.796;2023-02-28T17:08:41;13.20;20.80
47845;DHT22;33605;48.822;8.796;2023-02-28T17:11:07;12.90;20.50
47845;DHT22;33605;48.822;8.796;2023-02-28T17:13:33;12.60;20.60
47845;DHT22;33605;48.822;8.796;2023-02-28T17:16:00;12.40;20.80
47845;DHT22;33605;48.822;8.796;2023-02-28T17:18:25;12.20;20.90
47845;DHT22;33605;48.822;8.796;2023-02-28T17:20:52;11.90;20.90
47845;DHT22;33605;48.822;8.796;2023-02-28T17:23:17;11.80;21.10
47845;DHT22;33605;48.822;8.796;2023-02-28T17:25:43;11.60;21.30
47845;DHT22;33605;48.822;8.796;2023-02-28T17:28:19;11.40;21.40
47845;DHT22;33605;48.822;8.796;2023-02-28T17:30:46;11.20;21.50
47845;DHT22;33605;48.822;8.796;2023-02-28T17:33:13;11.00;21.60
47845;DHT22;33605;48.822;8.796;2023-02-28T17:35:38;10.80;21.70
47845;DHT22;33605;48.822;8.796;2023-02-28T17:38:04;10.60;21.70
47845;DHT22;33605;48.822;8.796;2023-02-28T17:40:30;10.50;22.30
47845;DHT22;33605;48.822;8.796;2023-02-28T17:42:56;10.30;21.80
47845;DHT22;33605;48.822;8.796;2023-02-28T17:45:25;10.10;21.90
47845;DHT22;33605;48.822;8.796;2023-02-28T17:47:50;9.90;23.00
47845;DHT22;33605;48.822;8.796;2023-02-28T17:50:19;9.80;23.10
47845;DHT22;33605;48.822;8.796;2023-02-28T17:52:45;9.70;23.20
47845;DHT22;33605;48.822;8.796;2023-02-28T17:55:11;9.50;23.40
47845;DHT22;33605;48.822;8.796;2023-02-28T17:57:37;9.40;23.40
47845;DHT22;33605;48.822;8.796;2023-02-28T18:00:03;9.20;23.40
47845;DHT22;33605;48.822;8.796;2023-02-28T18:02:32;9.10;23.50
47845;DHT22;33605;48.822;8.796;2023-02-28T18:04:58;9.00;23.70
47845;DHT22;33605;48.822;8.796;2023-02-28T18:07:24;8.90;23.80
47845;DHT22;33605;48.822;8.796;2023-02-28T18:09:50;8.70;23.80
47845;DHT22;33605;48.822;8.796;2023-02-28T18:12:16;8.60;23.90
47845;DHT22;33605;48.822;8.796;2023-02-28T18:14:41;8.50;24.10
47845;DHT22;33605;48.822;8.796;2023-02-28T18:17:09;8.40;24.10
47845;DHT22;33605;48.822;8.796;2023-02-28T18:19:35;8.30;24.30
47845;DHT22;33605;48.822;8.796;2023-02-28T18:22:03;8.20;24.40
47845;DHT22;33605;48.822;8.796;2023-02-28T18:24:28;8.10;24.50
47845;DHT22;33605;48.822;8.796;2023-02-28T18:26:54;8.00;24.60
47845;DHT22;33605;48.822;8.796;2023-02-28T18:29:25;7.90;24.60
47845;DHT22;33605;48.822;8.796;2023-02-28T18:31:51;7.80;24.70
47845;DHT22;33605;48.822;8.796;2023-02-28T18:34:17;7.70;24.80
47845;DHT22;33605;48.822;8.796;2023-02-28T18:36:43;7.60;24.70
47845;DHT22;33605;48.822;8.796;2023-02-28T18:39:11;7.60;24.80
47845;DHT22;33605;48.822;8.796;2023-02-28T18:41:37;7.50;24.80
47845;DHT22;33605;48.822;8.796;2023-02-28T18:44:03;7.40;24.90
47845;DHT22;33605;48.822;8.796;2023-02-28T18:46:29;7.40;24.90
47845;DHT22;33605;48.822;8.796;2023-02-28T18:48:54;7.30;24.90
47845;DHT22;33605;48.822;8.796;2023-02-28T18:51:23;7.30;25.10
47845;DHT22;33605;48.822;8.796;2023-02-28T18:53:49;7.20;25.20
47845;DHT22;33605;48.822;8.796;2023-02-28T18:56:17;7.10;25.20
47845;DHT22;33605;48.822;8.796;2023-02-28T18:58:43;7.10;25.30
47845;DHT22;33605;48.822;8.796;2023-02-28T19:01:23;7.10;25.30
47845;DHT22;33605;48.822;8.796;2023-02-28T19:03:52;7.00;25.40
47845;DHT22;33605;48.822;8.796;2023-02-28T19:06:18;7.00;25.30
47845;DHT22;33605;48.822;8.796;2023-02-28T19:08:44;7.00;25.40
47845;DHT22;33605;48.822;8.796;2023-02-28T19:11:12;6.90;25.60
47845;DHT22;33605;48.822;8.796;2023-02-28T19:13:38;6.90;25.70
47845;DHT22;33605;48.822;8.796;2023-02-28T19:16:06;6.90;25.80
47845;DHT22;33605;48.822;8.796;2023-02-28T19:18:32;6.80;25.80
47845;DHT22;33605;48.822;8.796;2023-02-28T19:20:59;6.80;25.90
47845;DHT22;33605;48.822;8.796;2023-02-28T19:23:25;6.70;25.80
47845;DHT22;33605;48.822;8.796;2023-02-28T19:25:51;6.70;25.90
47845;DHT22;33605;48.822;8.796;2023-02-28T19:28:17;6.70;26.00
47845;DHT22;33605;48.822;8.796;2023-02-28T19:30:47;6.60;26.10
47845;DHT22;33605;48.822;8.796;2023-02-28T19:33:14;6.60;26.10
47845;DHT22;33605;48.822;8.796;2023-02-28T19:35:41;6.50;26.10
47845;DHT22;33605;48.822;8.796;2023-02-28T19:38:07;6.50;26.20
47845;DHT22;33605;48.822;8.796;2023-02-28T19:40:35;6.50;26.30
47845;DHT22;33605;48.822;8.796;2023-02-28T19:43:00;6.40;26.30
47845;DHT22;33605;48.822;8.796;2023-02-28T19:45:26;6.40;26.40
47845;DHT22;33605;48.822;8.796;2023-02-28T19:47:54;6.40;26.50
47845;DHT22;33605;48.822;8.796;2023-02-28T19:50:20;6.30;26.50
47845;DHT22;33605;48.822;8.796;2023-02-28T19:52:46;6.20;26.50
47845;DHT22;33605;48.822;8.796;2023-02-28T19:55:14;6.20;26.60
47845;DHT22;33605;48.822;8.796;2023-02-28T19:57:41;6.20;26.70
47845;DHT22;33605;48.822;8.796;2023-02-28T20:00:09;6.10;26.70
47845;DHT22;33605;48.822;8.796;2023-02-28T20:02:36;6.00;26.90
47845;DHT22;33605;48.822;8.796;2023-02-28T20:05:02;6.00;26.90
47845;DHT22;33605;48.822;8.796;2023-02-28T20:07:28;6.00;27.10
47845;DHT22;33605;48.822;8.796;2023-02-28T20:09:54;5.90;27.00
47845;DHT22;33605;48.822;8.796;2023-02-28T20:12:20;5.90;27.20
47845;DHT22;33605;48.822;8.796;2023-02-28T20:14:48;5.80;27.20
47845;DHT22;33605;48.822;8.796;2023-02-28T20:17:14;5.80;27.20
47845;DHT22;33605;48.822;8.796;2023-02-28T20:19:40;5.80;27.20
47845;DHT22;33605;48.822;8.796;2023-02-28T20:22:06;5.80;27.30
47845;DHT22;33605;48.822;8.796;2023-02-28T20:24:37;5.80;27.90
47845;DHT22;33605;48.822;8.796;2023-02-28T20:27:02;5.60;27.40
47845;DHT22;33605;48.822;8.796;2023-02-28T20:29:28;5.60;27.60
47845;DHT22;33605;48.822;8.796;2023-02-28T20:31:54;5.60;27.60
47845;DHT22;33605;48.822;8.796;2023-02-28T20:34:21;5.60;27.60
47845;DHT22;33605;48.822;8.796;2023-02-28T20:36:48;5.50;27.60
47845;DHT22;33605;48.822;8.796;2023-02-28T20:39:14;5.50;27.70
47845;DHT22;33605;48.822;8.796;2023-02-28T20:41:40;5.50;27.70
47845;DHT22;33605;48.822;8.796;2023-02-28T20:44:06;5.40;27.80
47845;DHT22;33605;48.822;8.796;2023-02-28T20:46:31;5.40;27.90
47845;DHT22;33605;48.822;8.796;2023-02-28T20:48:59;5.40;28.00
47845;DHT22;33605;48.822;8.796;2023-02-28T20:51:24;5.40;28.00
47845;DHT22;33605;48.822;8.796;2023-02-28T20:53:50;5.30;27.90
47845;DHT22;33605;48.822;8.796;2023-02-28T20:56:18;5.30;27.90
47845;DHT22;33605;48.822;8.796;2023-02-28T20:58:46;5.30;27.90
47845;DHT22;33605;48.822;8.796;2023-02-28T21:01:17;5.30;28.00
47845;DHT22;33605;48.822;8.796;2023-02-28T21:03:51;5.30;28.00
47845;DHT22;33605;48.822;8.796;2023-02-28T21:06:20;5.20;27.90
47845;DHT22;33605;48.822;8.796;2023-02-28T21:08:46;5.20;27.90
47845;DHT22;33605;48.822;8.796;2023-02-28T21:11:18;5.20;28.00
47845;DHT22;33605;48.822;8.796;2023-02-28T21:13:44;5.20;28.10
47845;DHT22;33605;48.822;8.796;2023-02-28T21:16:13;5.10;28.10
47845;DHT22;33605;48.822;8.796;2023-02-28T21:18:39;5.10;28.10
47845;DHT22;33605;48.822;8.796;2023-02-28T21:21:11;5.10;28.20
47845;DHT22;33605;48.822;8.796;2023-02-28T21:23:38;5.10;28.20